Time;durP1;ratioP1;P1;durP2;ratioP2;P2;SDS_P1;SDS_P2;PMS_P1;PMS_P2;Temp;Humidity;BMP_temperature;BMP_pressure;BME280_temperature;BME280_humidity;BME280_pressure;Samples;Min_cycle;Max_cycle;Signal;HPM_P1;HPM_P2
2022/01/16 00:01:15;;;;;;;49.88;26.75;;;2.50;99.90;;;;;;5065386;28;20467;-71
2022/01/16 00:06:18;;;;;;;57.85;31.88;;;2.40;99.90;;;;;;5063034;28;20045;-71
2022/01/16 00:08:45;;;;;;;52.13;29.48;;;2.50;99.90;;;;;;5060185;28;20054;-71
2022/01/16 00:11:14;;;;;;;51.90;29.33;;;2.40;99.90;;;;;;5059332;28;20069;-71
2022/01/16 00:13:41;;;;;;;53.92;29.88;;;2.50;99.90;;;;;;5061513;28;20029;-71
2022/01/16 00:16:07;;;;;;;56.85;28.65;;;2.50;99.90;;;;;;5062405;28;20437;-71
2022/01/16 00:18:42;;;;;;;52.65;28.45;;;2.50;99.90;;;;;;5067367;28;20131;-70
2022/01/16 00:21:08;;;;;;;51.90;28.50;;;2.50;99.90;;;;;;5062432;28;20052;-70
2022/01/16 00:23:34;;;;;;;61.70;31.35;;;2.50;99.90;;;;;;5064072;28;20497;-70
2022/01/16 00:26:00;;;;;;;56.42;28.70;;;2.50;99.90;;;;;;5065720;28;20563;-70
2022/01/16 00:28:26;;;;;;;52.95;29.30;;;2.50;99.90;;;;;;5062085;28;20045;-70
2022/01/16 00:30:52;;;;;;;52.15;27.65;;;2.50;99.90;;;;;;5059931;28;20037;-70
2022/01/16 00:33:19;;;;;;;56.88;30.48;;;2.40;99.90;;;;;;5059719;28;20041;-70
2022/01/16 00:35:45;;;;;;;59.65;31.73;;;2.40;99.90;;;;;;5059133;28;20032;-70
2022/01/16 00:38:11;;;;;;;57.10;31.00;;;2.40;99.90;;;;;;5068290;28;20122;-70
2022/01/16 00:40:37;;;;;;;67.82;32.53;;;2.40;99.90;;;;;;5063629;28;20123;-70
2022/01/16 00:43:03;;;;;;;64.15;30.95;;;2.40;99.90;;;;;;5040711;28;20307;-70
2022/01/16 00:45:33;;;;;;;52.47;29.25;;;2.40;99.90;;;;;;5061231;28;20501;-70
2022/01/16 00:48:02;;;;;;;60.75;30.40;;;2.30;99.90;;;;;;5063711;28;20095;-70
2022/01/16 00:50:29;;;;;;;58.53;31.90;;;2.30;99.90;;;;;;5057656;28;20037;-70
2022/01/16 00:52:55;;;;;;;58.97;31.98;;;2.30;99.90;;;;;;5065789;28;20076;-70
2022/01/16 00:55:21;;;;;;;55.95;31.98;;;2.30;99.90;;;;;;5063939;28;20040;-70
2022/01/16 00:57:47;;;;;;;60.30;32.22;;;2.40;99.90;;;;;;5059242;28;20341;-70
2022/01/16 01:00:13;;;;;;;75.60;36.08;;;2.40;99.90;;;;;;5064184;28;20090;-70
2022/01/16 01:02:39;;;;;;;59.33;31.83;;;2.40;99.90;;;;;;5060486;28;20047;-70
2022/01/16 01:05:05;;;;;;;67.00;34.17;;;2.40;99.90;;;;;;5056816;28;20041;-70
2022/01/16 01:07:31;;;;;;;62.53;32.33;;;2.30;99.90;;;;;;5056410;28;20048;-70
2022/01/16 01:09:57;;;;;;;67.00;33.33;;;2.30;99.90;;;;;;5059621;28;20037;-71
2022/01/16 01:12:30;;;;;;;65.93;32.53;;;2.40;99.90;;;;;;5069272;28;20040;-70
2022/01/16 01:17:35;;;;;;;61.97;31.30;;;2.40;99.90;;;;;;5060972;28;20106;-70
2022/01/16 01:20:04;;;;;;;66.22;34.22;;;2.40;99.90;;;;;;5066834;28;20628;-70
2022/01/16 01:22:30;;;;;;;53.65;31.33;;;2.40;99.90;;;;;;5066311;28;20101;-70
2022/01/16 01:24:55;;;;;;;75.82;37.08;;;2.40;99.90;;;;;;5057626;28;20044;-71
2022/01/16 01:27:23;;;;;;;66.63;35.50;;;2.40;99.90;;;;;;5061570;28;20044;-69
2022/01/16 01:29:59;;;;;;;69.80;37.72;;;2.40;99.90;;;;;;5065964;28;20315;-70
2022/01/16 01:32:25;;;;;;;82.30;37.90;;;2.40;99.90;;;;;;5057640;28;20033;-70
2022/01/16 01:34:51;;;;;;;74.75;36.88;;;2.40;99.90;;;;;;5061233;28;20061;-71
2022/01/16 01:37:17;;;;;;;67.70;35.50;;;2.40;99.90;;;;;;5067212;28;20048;-71
2022/01/16 01:39:42;;;;;;;69.25;37.65;;;2.40;99.90;;;;;;5055625;28;20043;-71
2022/01/16 01:42:11;;;;;;;72.10;38.15;;;2.40;99.90;;;;;;5042766;28;20106;-71
2022/01/16 01:52:53;;;;;;;75.72;39.40;;;2.40;99.90;;;;;;5059303;28;20070;-71
2022/01/16 01:55:19;;;;;;;89.32;41.97;;;2.40;99.90;;;;;;5061223;28;20047;-71
2022/01/16 01:57:45;;;;;;;94.97;40.65;;;2.40;99.90;;;;;;5061535;28;20471;-71
2022/01/16 02:00:17;;;;;;;86.95;43.50;;;2.40;99.90;;;;;;5063827;28;20103;-71
2022/01/16 02:05:37;;;;;;;92.57;41.85;;;2.40;99.90;;;;;;5068745;28;20279;-71
2022/01/16 02:08:05;;;;;;;86.45;41.83;;;2.40;99.90;;;;;;5056635;28;20116;-71
2022/01/16 02:10:31;;;;;;;99.50;44.60;;;2.50;99.90;;;;;;5063185;28;20043;-71
2022/01/16 02:13:04;;;;;;;96.72;42.40;;;2.50;99.90;;;;;;5056827;28;20079;-71
2022/01/16 02:31:32;;;;;;;99.57;47.85;;;2.50;99.90;;;;;;5063654;28;20119;-71
2022/01/16 02:36:30;;;;;;;112.38;50.35;;;2.50;99.90;;;;;;5057267;28;20079;-71
2022/01/16 02:39:10;;;;;;;122.50;51.10;;;2.50;99.90;;;;;;5065220;28;20063;-71
2022/01/16 02:41:36;;;;;;;108.07;51.13;;;2.50;99.90;;;;;;5064149;28;20137;-71
2022/01/16 02:44:13;;;;;;;96.40;45.33;;;2.60;99.90;;;;;;5056063;28;20048;-71
2022/01/16 02:46:39;;;;;;;125.57;53.72;;;2.60;99.90;;;;;;5060222;28;20489;-70
2022/01/16 02:49:16;;;;;;;129.43;55.70;;;2.60;99.90;;;;;;5065894;28;20286;-70
2022/01/16 02:51:42;;;;;;;125.28;52.33;;;2.60;99.90;;;;;;5058853;28;20043;-70
2022/01/16 02:54:08;;;;;;;113.93;52.97;;;2.60;99.90;;;;;;5036482;28;20049;-70
2022/01/16 02:56:35;;;;;;;130.52;57.63;;;2.60;99.90;;;;;;5058051;28;20094;-71
2022/01/16 02:59:01;;;;;;;123.88;53.58;;;2.70;99.90;;;;;;5056636;28;20432;-71
2022/01/16 03:01:27;;;;;;;127.32;55.13;;;2.70;99.90;;;;;;5053984;28;20395;-71
2022/01/16 03:03:52;;;;;;;119.00;52.40;;;2.70;99.90;;;;;;5064781;28;20033;-70
2022/01/16 03:06:18;;;;;;;124.93;53.90;;;2.70;99.90;;;;;;5056324;28;20047;-71
2022/01/16 03:08:44;;;;;;;133.43;55.95;;;2.70;99.90;;;;;;5059029;28;20077;-71
2022/01/16 03:14:13;;;;;;;137.73;58.17;;;2.70;99.90;;;;;;5058628;28;20064;-71
2022/01/16 03:16:42;;;;;;;131.20;54.50;;;2.70;99.90;;;;;;5051582;28;20045;-71
2022/01/16 03:22:02;;;;;;;124.15;51.40;;;2.70;99.90;;;;;;5064616;28;20070;-70
2022/01/16 03:24:32;;;;;;;140.30;58.47;;;2.70;99.90;;;;;;5057396;28;20119;-70
2022/01/16 03:27:03;;;;;;;136.70;58.80;;;2.70;99.90;;;;;;5058364;28;20394;-70
2022/01/16 03:29:30;;;;;;;145.05;60.95;;;2.70;99.90;;;;;;5058831;28;20048;-71
2022/01/16 03:31:58;;;;;;;147.50;60.65;;;2.70;99.90;;;;;;5049751;28;20120;-71
2022/01/16 03:34:24;;;;;;;134.25;59.38;;;2.70;99.90;;;;;;5058448;28;20386;-71
2022/01/16 03:36:50;;;;;;;136.98;60.05;;;2.70;99.90;;;;;;5058592;28;20032;-70
2022/01/16 03:39:16;;;;;;;132.80;60.63;;;2.70;99.90;;;;;;5061373;28;20029;-70
2022/01/16 03:41:42;;;;;;;154.50;61.67;;;2.70;99.90;;;;;;5059750;28;20568;-70
2022/01/16 03:44:09;;;;;;;145.48;60.95;;;2.70;99.90;;;;;;5059014;28;20072;-70
2022/01/16 03:46:39;;;;;;;141.55;59.42;;;2.80;99.90;;;;;;5056112;28;20598;-70
2022/01/16 03:49:12;;;;;;;152.68;60.35;;;2.80;99.90;;;;;;5076229;28;20041;-71
2022/01/16 03:51:39;;;;;;;124.78;58.80;;;2.80;99.90;;;;;;5056704;28;20051;-70
2022/01/16 03:54:08;;;;;;;126.55;55.22;;;2.80;99.90;;;;;;5053069;28;20394;-71
2022/01/16 03:56:35;;;;;;;138.70;57.42;;;2.90;99.90;;;;;;5055795;28;20037;-70
2022/01/16 03:59:01;;;;;;;137.25;59.25;;;2.90;99.90;;;;;;5053507;28;20041;-70
2022/01/16 04:01:27;;;;;;;133.00;60.08;;;2.90;99.90;;;;;;5074404;28;20430;-71
2022/01/16 04:03:54;;;;;;;144.18;61.80;;;2.90;99.90;;;;;;5061953;28;20083;-70
2022/01/16 04:06:20;;;;;;;160.15;62.00;;;2.90;99.90;;;;;;5054345;28;20123;-70
2022/01/16 04:08:51;;;;;;;142.60;58.67;;;3.00;99.90;;;;;;5058945;28;20047;-71
2022/01/16 04:11:17;;;;;;;145.82;63.25;;;3.00;99.90;;;;;;5057967;28;20051;-70
2022/01/16 04:13:54;;;;;;;142.02;58.42;;;3.00;99.90;;;;;;5055259;28;20056;-71
2022/01/16 04:16:23;;;;;;;125.65;56.70;;;3.00;99.90;;;;;;5056763;28;20780;-71
2022/01/16 04:18:51;;;;;;;131.05;57.60;;;3.00;99.90;;;;;;5057722;28;20108;-71
2022/01/16 04:21:24;;;;;;;156.90;61.85;;;3.10;99.90;;;;;;5055935;28;20052;-70
2022/01/16 04:23:51;;;;;;;142.57;58.17;;;3.10;99.90;;;;;;5062308;28;20056;-70
2022/01/16 04:26:18;;;;;;;136.88;59.72;;;3.10;99.90;;;;;;5057142;28;20127;-70
2022/01/16 04:28:47;;;;;;;135.70;61.10;;;3.10;99.90;;;;;;5058920;28;20029;-71
2022/01/16 04:31:14;;;;;;;132.57;60.33;;;3.20;99.90;;;;;;5063113;28;20286;-70
2022/01/16 04:33:43;;;;;;;138.93;59.22;;;3.20;99.90;;;;;;5060516;28;20155;-71
2022/01/16 04:36:10;;;;;;;125.93;56.55;;;3.20;99.90;;;;;;5058461;28;20033;-70
2022/01/16 04:38:41;;;;;;;116.90;52.55;;;3.20;99.90;;;;;;5061912;28;20052;-70
2022/01/16 04:43:52;;;;;;;143.75;59.45;;;3.30;99.90;;;;;;5058220;28;20048;-70
2022/01/16 04:46:20;;;;;;;140.63;59.38;;;3.30;99.90;;;;;;5059272;28;20102;-71
2022/01/16 04:48:47;;;;;;;146.80;61.22;;;3.30;99.90;;;;;;5063631;28;20045;-71
2022/01/16 04:51:13;;;;;;;145.90;61.00;;;3.40;99.90;;;;;;5057093;28;20048;-70
2022/01/16 04:53:39;;;;;;;150.02;64.50;;;3.40;99.90;;;;;;5060057;28;20037;-70
2022/01/16 04:56:06;;;;;;;140.45;65.57;;;3.40;99.90;;;;;;5062366;28;20083;-70
2022/01/16 04:58:33;;;;;;;153.95;63.88;;;3.40;99.90;;;;;;5057102;28;20040;-70
2022/01/16 05:01:00;;;;;;;153.30;67.32;;;3.50;99.90;;;;;;5058949;28;20418;-70
2022/01/16 05:03:27;;;;;;;148.35;65.95;;;3.50;99.90;;;;;;5059905;28;20451;-70
2022/01/16 05:05:53;;;;;;;172.23;70.72;;;3.50;99.90;;;;;;5062244;28;20040;-70
2022/01/16 05:08:20;;;;;;;171.00;71.18;;;3.60;99.90;;;;;;5065665;28;20076;-70
2022/01/16 05:10:46;;;;;;;192.52;77.28;;;3.60;99.90;;;;;;5058096;28;20048;-71
2022/01/16 05:18:34;;;;;;;178.68;70.72;;;3.70;99.90;;;;;;5062605;28;20119;-70
2022/01/16 05:21:00;;;;;;;183.32;72.32;;;3.70;99.90;;;;;;5063217;28;20113;-71
2022/01/16 05:23:27;;;;;;;163.68;72.63;;;3.80;99.90;;;;;;5057885;28;20128;-70
2022/01/16 05:25:53;;;;;;;175.65;75.28;;;3.80;99.90;;;;;;5058628;28;20044;-71
2022/01/16 05:28:18;;;;;;;151.48;67.28;;;3.80;99.90;;;;;;5059653;28;20044;-70
2022/01/16 05:30:44;;;;;;;158.63;70.65;;;3.80;99.90;;;;;;5064636;28;20045;-70
2022/01/16 05:33:10;;;;;;;151.63;69.55;;;3.90;99.90;;;;;;5058805;28;20035;-70
2022/01/16 05:35:36;;;;;;;157.43;68.10;;;3.90;99.90;;;;;;5062038;28;20032;-70
2022/01/16 05:38:02;;;;;;;161.32;74.05;;;3.90;99.90;;;;;;5062436;28;20044;-70
2022/01/16 05:40:28;;;;;;;155.48;65.43;;;3.90;99.90;;;;;;5057295;28;20479;-71
2022/01/16 05:42:54;;;;;;;139.80;64.95;;;3.90;99.90;;;;;;5063039;28;20039;-71
2022/01/16 05:45:20;;;;;;;136.45;62.22;;;4.00;99.90;;;;;;5067948;28;20033;-71
2022/01/16 05:47:45;;;;;;;133.40;63.03;;;4.00;99.90;;;;;;5059989;28;20032;-70
2022/01/16 05:50:11;;;;;;;136.70;63.35;;;4.00;99.90;;;;;;5064361;28;20047;-71
2022/01/16 05:52:37;;;;;;;138.48;63.70;;;4.00;99.90;;;;;;5059698;28;20041;-70
2022/01/16 05:55:03;;;;;;;127.97;57.13;;;4.00;99.90;;;;;;5061948;28;20063;-70
2022/01/16 05:57:29;;;;;;;132.63;60.95;;;4.00;99.90;;;;;;5055958;28;20037;-71
2022/01/16 05:59:55;;;;;;;125.50;59.47;;;4.10;99.90;;;;;;5059721;28;20150;-70
2022/01/16 06:02:21;;;;;;;114.97;57.35;;;4.10;99.90;;;;;;5062318;28;20055;-70
2022/01/16 06:04:47;;;;;;;132.02;61.42;;;4.10;99.90;;;;;;5066514;28;20561;-70
2022/01/16 06:07:13;;;;;;;114.78;57.78;;;4.10;99.90;;;;;;5059505;28;20040;-70
2022/01/16 06:09:39;;;;;;;113.28;55.78;;;4.10;99.90;;;;;;5062052;28;20044;-71
2022/01/16 06:12:05;;;;;;;112.32;57.78;;;4.10;99.90;;;;;;5059631;28;20400;-71
2022/01/16 06:14:31;;;;;;;119.22;56.00;;;4.20;99.90;;;;;;5057157;28;20040;-70
2022/01/16 06:16:57;;;;;;;99.57;52.42;;;4.20;99.90;;;;;;5064711;28;20413;-71
2022/01/16 06:19:23;;;;;;;103.25;53.70;;;4.20;99.90;;;;;;5064204;28;20029;-71
2022/01/16 06:21:49;;;;;;;114.55;53.83;;;4.30;99.90;;;;;;5057122;28;20053;-71
2022/01/16 06:24:15;;;;;;;106.22;52.47;;;4.30;99.90;;;;;;5059357;28;20037;-71
2022/01/16 06:26:41;;;;;;;102.25;47.65;;;4.30;99.90;;;;;;5060235;28;20565;-71
2022/01/16 06:29:07;;;;;;;100.25;47.95;;;4.30;99.90;;;;;;5053750;28;20045;-71
2022/01/16 06:31:33;;;;;;;98.72;48.67;;;4.40;99.90;;;;;;5061020;28;20378;-70
2022/01/16 06:34:00;;;;;;;102.10;49.30;;;4.40;99.90;;;;;;5054405;28;20414;-70
2022/01/16 06:36:26;;;;;;;90.40;50.80;;;4.40;99.90;;;;;;5057356;28;20459;-70
2022/01/16 06:38:55;;;;;;;99.72;51.17;;;4.40;99.90;;;;;;5061146;28;20044;-71
2022/01/16 06:41:22;;;;;;;93.65;46.08;;;4.40;99.90;;;;;;5057414;28;20076;-70
2022/01/16 06:43:48;;;;;;;95.95;46.95;;;4.40;99.90;;;;;;5053672;28;20033;-70
2022/01/16 06:46:14;;;;;;;91.10;48.38;;;4.50;99.90;;;;;;5064357;28;20048;-70
2022/01/16 06:48:40;;;;;;;88.45;48.78;;;4.50;99.90;;;;;;5055848;28;20051;-70
2022/01/16 06:51:07;;;;;;;95.97;45.45;;;4.50;99.90;;;;;;5061150;28;20422;-71
2022/01/16 06:53:33;;;;;;;89.93;46.83;;;4.50;99.90;;;;;;5063241;28;20033;-71
2022/01/16 06:55:59;;;;;;;90.90;47.65;;;4.50;99.90;;;;;;5059786;28;20094;-71
2022/01/16 06:58:25;;;;;;;87.82;46.95;;;4.50;99.90;;;;;;5063469;28;20049;-71
2022/01/16 07:00:52;;;;;;;86.55;46.15;;;4.50;99.90;;;;;;5059097;28;20036;-71
2022/01/16 07:03:18;;;;;;;101.00;48.17;;;4.50;99.90;;;;;;5053161;28;20059;-71
2022/01/16 07:05:44;;;;;;;86.65;46.05;;;4.50;99.90;;;;;;5061200;28;20121;-71
2022/01/16 07:08:10;;;;;;;87.25;43.92;;;4.50;99.90;;;;;;5059867;28;20128;-71
2022/01/16 07:10:36;;;;;;;85.30;45.88;;;4.50;99.90;;;;;;5061123;28;20036;-71
2022/01/16 07:13:03;;;;;;;78.50;45.85;;;4.50;99.90;;;;;;5058842;28;20445;-70
2022/01/16 07:15:29;;;;;;;79.82;43.63;;;4.50;99.90;;;;;;5059954;28;20127;-70
2022/01/16 07:17:54;;;;;;;76.10;43.47;;;4.50;99.90;;;;;;5053291;28;20128;-70
2022/01/16 07:20:20;;;;;;;82.30;42.92;;;4.60;99.90;;;;;;5064249;28;20472;-71
2022/01/16 07:22:47;;;;;;;76.72;43.97;;;4.60;99.90;;;;;;5056753;28;20037;-70
2022/01/16 07:25:54;;;;;;;69.93;39.85;;;4.60;99.90;;;;;;5064195;28;20501;-70
2022/01/16 07:28:20;;;;;;;83.10;42.45;;;4.60;99.90;;;;;;5060701;28;20040;-70
2022/01/16 07:30:47;;;;;;;76.65;42.70;;;4.60;99.90;;;;;;5056251;28;20494;-70
2022/01/16 07:33:13;;;;;;;72.68;40.67;;;4.60;99.90;;;;;;5060747;28;20047;-71
2022/01/16 07:35:39;;;;;;;67.70;39.75;;;4.60;99.90;;;;;;5059349;28;20125;-71
2022/01/16 07:38:07;;;;;;;64.45;38.45;;;4.60;99.90;;;;;;5044002;28;20123;-70
2022/01/16 07:40:34;;;;;;;62.55;35.03;;;4.60;99.90;;;;;;5059383;28;20386;-71
2022/01/16 07:43:00;;;;;;;54.00;32.25;;;4.60;99.90;;;;;;5059141;28;20430;-71
2022/01/16 07:45:26;;;;;;;62.33;33.92;;;4.60;99.90;;;;;;5058519;28;20036;-71
2022/01/16 07:47:53;;;;;;;52.70;31.30;;;4.60;99.90;;;;;;5062821;28;20470;-71
2022/01/16 07:50:20;;;;;;;48.60;32.63;;;4.70;99.90;;;;;;5064538;28;20076;-71
2022/01/16 07:52:47;;;;;;;49.17;30.20;;;4.70;99.90;;;;;;5058222;28;20132;-71
2022/01/16 07:55:13;;;;;;;55.35;31.55;;;4.70;99.90;;;;;;5061222;28;20040;-71
2022/01/16 07:57:39;;;;;;;45.53;29.10;;;4.70;99.90;;;;;;5044459;28;20474;-71
2022/01/16 08:00:06;;;;;;;48.60;30.27;;;4.70;99.90;;;;;;5054578;28;20040;-71
2022/01/16 08:02:32;;;;;;;41.95;27.65;;;4.70;99.90;;;;;;5060091;28;20079;-71
2022/01/16 08:04:58;;;;;;;43.65;26.95;;;4.70;99.90;;;;;;5059959;28;20446;-71
2022/01/16 08:07:24;;;;;;;47.85;29.70;;;4.70;99.90;;;;;;5057349;28;20119;-70
2022/01/16 08:09:50;;;;;;;41.20;27.15;;;4.70;99.90;;;;;;5054132;28;20044;-71
2022/01/16 08:12:16;;;;;;;55.90;28.77;;;4.70;99.90;;;;;;5055315;28;20090;-71
2022/01/16 08:14:42;;;;;;;40.90;27.00;;;4.80;99.90;;;;;;5062315;28;20653;-71
2022/01/16 08:17:08;;;;;;;44.63;28.30;;;4.80;99.90;;;;;;5059454;28;20406;-71
2022/01/16 08:19:34;;;;;;;42.53;26.00;;;4.80;99.90;;;;;;5058101;28;20234;-70
2022/01/16 08:22:00;;;;;;;40.92;26.25;;;4.80;99.90;;;;;;5062623;28;20150;-71
2022/01/16 08:24:26;;;;;;;42.33;27.83;;;4.80;99.90;;;;;;5061924;28;20640;-71
2022/01/16 08:26:52;;;;;;;38.38;26.08;;;4.80;99.90;;;;;;5054855;28;20032;-71
2022/01/16 08:29:19;;;;;;;44.78;26.00;;;4.80;99.90;;;;;;5059110;28;20520;-71
2022/01/16 08:31:44;;;;;;;43.63;26.73;;;4.80;99.90;;;;;;5062243;28;20433;-71
2022/01/16 08:34:11;;;;;;;44.67;26.50;;;4.90;99.90;;;;;;5059292;28;20037;-71
2022/01/16 08:36:37;;;;;;;41.50;26.52;;;4.90;99.90;;;;;;5058091;28;20052;-70
2022/01/16 08:39:04;;;;;;;45.13;26.88;;;4.90;99.90;;;;;;5059031;28;20041;-71
2022/01/16 08:41:30;;;;;;;40.17;25.25;;;4.90;99.90;;;;;;5059266;28;20490;-71
2022/01/16 08:43:56;;;;;;;42.80;26.30;;;4.90;99.90;;;;;;5056802;28;20047;-71
2022/01/16 08:46:22;;;;;;;41.67;26.38;;;5.00;99.90;;;;;;5059289;28;20028;-71
2022/01/16 08:48:49;;;;;;;55.17;28.65;;;5.00;99.90;;;;;;5062978;28;20040;-71
2022/01/16 08:51:15;;;;;;;54.03;26.63;;;5.00;99.90;;;;;;5063096;28;20412;-71
2022/01/16 08:53:41;;;;;;;38.08;24.33;;;5.00;99.90;;;;;;5059768;28;20048;-71
2022/01/16 08:56:07;;;;;;;45.70;27.77;;;5.00;99.90;;;;;;5038310;28;20040;-71
2022/01/16 08:58:33;;;;;;;47.05;26.42;;;5.10;99.90;;;;;;5060866;28;20044;-71
2022/01/16 09:00:58;;;;;;;41.53;25.15;;;5.10;99.90;;;;;;5060182;28;20051;-71
2022/01/16 09:03:24;;;;;;;47.15;25.73;;;5.10;99.90;;;;;;5067292;28;20036;-70
2022/01/16 09:05:51;;;;;;;45.75;25.38;;;5.10;99.90;;;;;;5059643;28;20044;-70
2022/01/16 09:08:18;;;;;;;48.47;27.63;;;5.20;99.90;;;;;;5064706;28;20123;-72
2022/01/16 09:10:45;;;;;;;41.95;26.48;;;5.20;99.90;;;;;;5065152;28;20406;-71
2022/01/16 09:13:15;;;;;;;45.97;27.08;;;5.20;99.90;;;;;;5058056;28;20506;-70
2022/01/16 09:15:48;;;;;;;42.03;27.00;;;5.30;99.90;;;;;;5057745;28;20033;-71
2022/01/16 09:18:14;;;;;;;52.97;27.55;;;5.30;99.90;;;;;;5062876;28;20032;-71
2022/01/16 09:20:40;;;;;;;48.13;26.58;;;5.30;99.90;;;;;;5056940;28;20426;-71
2022/01/16 09:23:07;;;;;;;50.90;26.52;;;5.40;99.90;;;;;;5070689;28;20045;-71
2022/01/16 09:25:33;;;;;;;45.08;26.55;;;5.40;99.90;;;;;;5061497;28;20041;-73
2022/01/16 09:27:59;;;;;;;50.00;27.40;;;5.40;99.90;;;;;;5060182;28;20029;-73
2022/01/16 09:30:27;;;;;;;47.30;27.38;;;5.40;99.90;;;;;;5061451;28;20037;-73
2022/01/16 09:32:53;;;;;;;51.70;26.10;;;5.50;99.90;;;;;;5065344;28;20072;-73
2022/01/16 09:35:19;;;;;;;50.38;28.15;;;5.50;99.90;;;;;;5056453;28;20045;-73
2022/01/16 09:37:46;;;;;;;52.28;25.63;;;5.50;99.90;;;;;;5047559;28;20040;-73
2022/01/16 09:40:14;;;;;;;44.95;24.50;;;5.50;99.90;;;;;;5060298;28;20431;-73
2022/01/16 09:42:40;;;;;;;36.97;23.90;;;5.60;99.90;;;;;;5059466;28;20037;-73
2022/01/16 09:45:09;;;;;;;41.35;24.65;;;5.60;99.90;;;;;;5061409;28;20040;-74
2022/01/16 09:47:36;;;;;;;47.25;24.63;;;5.60;99.90;;;;;;5062441;28;20115;-73
2022/01/16 09:50:07;;;;;;;37.17;24.02;;;5.60;99.90;;;;;;5051933;28;20037;-73
2022/01/16 09:52:40;;;;;;;38.72;23.15;;;5.70;99.90;;;;;;5061460;28;20087;-73
2022/01/16 09:55:07;;;;;;;39.00;23.63;;;5.70;99.90;;;;;;5058897;28;20050;-71
2022/01/16 09:57:33;;;;;;;32.95;22.05;;;5.70;99.90;;;;;;5055887;28;20545;-71
2022/01/16 09:59:59;;;;;;;36.05;22.67;;;5.70;99.90;;;;;;5055873;28;20043;-70
2022/01/16 10:02:25;;;;;;;34.58;23.05;;;5.80;99.90;;;;;;5057867;28;20094;-70
2022/01/16 10:04:53;;;;;;;44.58;21.45;;;5.80;99.90;;;;;;5055514;28;20036;-71
2022/01/16 10:07:19;;;;;;;35.03;21.48;;;5.80;99.90;;;;;;5052352;28;20119;-71
2022/01/16 10:10:09;;;;;;;33.28;20.20;;;5.80;99.90;;;;;;5041582;28;20133;-71
2022/01/16 10:12:35;;;;;;;32.85;18.40;;;5.90;99.90;;;;;;5054342;28;20091;-71
2022/01/16 10:15:20;;;;;;;27.27;18.92;;;5.90;99.90;;;;;;5059948;28;20044;-71
2022/01/16 10:17:48;;;;;;;29.20;17.27;;;5.90;99.90;;;;;;5058336;28;20040;-71
2022/01/16 10:20:17;;;;;;;34.55;17.85;;;5.90;99.90;;;;;;5058614;28;20114;-71
2022/01/16 10:22:50;;;;;;;29.90;17.92;;;6.00;99.90;;;;;;5057830;28;20045;-71
2022/01/16 10:25:24;;;;;;;27.30;15.88;;;6.00;99.90;;;;;;5060366;28;20306;-71
2022/01/16 10:27:50;;;;;;;29.08;16.02;;;6.00;99.90;;;;;;5064031;28;20039;-71
2022/01/16 10:30:18;;;;;;;32.88;15.43;;;6.00;99.90;;;;;;5064367;28;20483;-71
2022/01/16 10:32:45;;;;;;;28.20;15.13;;;6.00;99.90;;;;;;5060791;28;20067;-71
2022/01/16 10:35:20;;;;;;;25.08;14.00;;;6.00;99.90;;;;;;5058570;28;20573;-71
2022/01/16 10:37:48;;;;;;;23.40;14.95;;;6.00;99.90;;;;;;5061940;28;20437;-71
2022/01/16 10:40:23;;;;;;;21.92;13.80;;;6.10;99.90;;;;;;5057030;28;20048;-71
2022/01/16 10:42:58;;;;;;;24.23;14.40;;;6.10;99.90;;;;;;5045009;28;20040;-71
2022/01/16 10:45:26;;;;;;;22.55;13.02;;;6.10;99.90;;;;;;5057720;28;20102;-72
2022/01/16 10:47:55;;;;;;;28.45;14.95;;;6.10;99.90;;;;;;5058247;28;20062;-71
2022/01/16 10:50:39;;;;;;;28.85;14.80;;;6.10;99.90;;;;;;5058527;28;20474;-71
2022/01/16 10:53:09;;;;;;;24.85;13.02;;;6.20;99.90;;;;;;5063900;28;20045;-71
2022/01/16 10:55:55;;;;;;;26.25;13.77;;;6.10;99.90;;;;;;5059453;28;20047;-71
2022/01/16 10:58:24;;;;;;;26.02;11.95;;;6.20;99.90;;;;;;5055847;28;20102;-72
2022/01/16 11:01:03;;;;;;;26.65;11.77;;;6.20;99.90;;;;;;5064645;28;20036;-70
2022/01/16 11:03:40;;;;;;;21.33;11.25;;;6.20;99.90;;;;;;5062929;28;20054;-71
2022/01/16 11:06:06;;;;;;;22.45;11.10;;;6.20;99.90;;;;;;5057147;28;20033;-71
2022/01/16 11:08:33;;;;;;;22.92;10.55;;;6.20;99.90;;;;;;5064145;28;20422;-72
2022/01/16 11:11:00;;;;;;;20.65;10.55;;;6.20;99.90;;;;;;5057270;28;20045;-70
2022/01/16 11:13:34;;;;;;;23.20;10.48;;;6.20;99.90;;;;;;5054228;28;20037;-70
2022/01/16 11:16:07;;;;;;;20.08;10.85;;;6.30;99.90;;;;;;5067377;28;20144;-71
2022/01/16 11:18:37;;;;;;;15.60;10.10;;;6.20;99.90;;;;;;5061783;28;20041;-71
2022/01/16 11:26:22;;;;;;;22.55;9.82;;;6.30;99.90;;;;;;5058443;28;20043;-70
2022/01/16 11:28:51;;;;;;;24.33;11.13;;;6.30;99.90;;;;;;5059294;28;20097;-71
2022/01/16 11:31:17;;;;;;;20.55;11.80;;;6.30;99.90;;;;;;5060867;28;20052;-71
2022/01/16 11:33:44;;;;;;;19.98;11.07;;;6.30;99.90;;;;;;5060094;28;20040;-70
2022/01/16 11:36:37;;;;;;;21.80;10.95;;;6.30;99.90;;;;;;5055878;28;20080;-71
2022/01/16 11:39:05;;;;;;;24.05;10.00;;;6.30;99.90;;;;;;5055178;28;20486;-70
2022/01/16 11:41:40;;;;;;;17.90;10.63;;;6.30;99.90;;;;;;5061890;28;20398;-70
2022/01/16 11:44:20;;;;;;;26.05;10.27;;;6.40;99.90;;;;;;5057730;28;20452;-71
2022/01/16 11:46:50;;;;;;;30.70;10.32;;;6.40;99.90;;;;;;5058063;28;20037;-71
2022/01/16 11:49:19;;;;;;;17.73;9.93;;;6.40;99.90;;;;;;5063137;28;20040;-71
2022/01/16 11:51:51;;;;;;;15.05;8.98;;;6.40;99.90;;;;;;5062693;28;20082;-71
2022/01/16 11:54:26;;;;;;;14.18;8.93;;;6.40;99.90;;;;;;5063098;28;20144;-71
2022/01/16 11:57:12;;;;;;;20.05;9.48;;;6.50;99.90;;;;;;5066387;28;20495;-71
2022/01/16 11:59:41;;;;;;;18.35;8.65;;;6.50;99.90;;;;;;5063207;28;20466;-71
2022/01/16 12:02:07;;;;;;;20.63;9.23;;;6.50;99.90;;;;;;5061829;28;20545;-71
2022/01/16 12:04:34;;;;;;;15.95;8.57;;;6.50;99.90;;;;;;5061995;28;20051;-71
2022/01/16 12:07:12;;;;;;;19.80;9.52;;;6.50;99.90;;;;;;5066528;28;20389;-71
2022/01/16 12:09:48;;;;;;;16.33;8.63;;;6.50;99.90;;;;;;5057777;28;20075;-71
2022/01/16 12:12:32;;;;;;;15.95;9.13;;;6.50;99.90;;;;;;5060218;28;20043;-71
